Telford, United Kingdom
Current Conditions -  °F | °C
As of 1:50 PM on Monday 20 Oct 2014 (Local Time) from EGOS Reporting Station
Broken Clouds Broken Clouds  
Wind Chill: 14°   Ceiling: 9000
Heat Index: 14°   Visibility: 6mi
Dew Point: 10°   Wind: 14mph
Humidity: 77%   Direction: 240°WSW
Pressure: 29.88"   Gusts: NA
Location:  52.68°N, 2.45°W
Report Text: EGOS 201250Z 24012KT 9999 FEW020 SCT050 BKN090 14/10 Q1012 BLU NOSIG
Loading
Personal Weather Stations






























Interactive Weather Map
Tropical Storm Tracking
New forecast layout! Learn more

10-Day Weather Forecast

Advertisements
Track Severe Weather on mobile